Time;durP1;ratioP1;P1;durP2;ratioP2;P2;SDS_P1;SDS_P2;PMS_P1;PMS_P2;Temp;Humidity;BMP_temperature;BMP_pressure;BME280_temperature;BME280_humidity;BME280_pressure;Samples;Min_cycle;Max_cycle;Signal;HPM_P1;HPM_P2
2021/05/14 00:00:48;;;;;;;;;;;11.80;99.90;;;;;;5093481;28;19980;-61
2021/05/14 00:03:14;;;;;;;;;;;11.80;99.90;;;;;;5093579;28;19912;-61
2021/05/14 00:05:40;;;;;;;;;;;11.80;99.90;;;;;;5093644;28;19919;-62
2021/05/14 00:08:06;;;;;;;;;;;11.80;99.90;;;;;;5093288;28;20257;-61
2021/05/14 00:10:34;;;;;;;;;;;11.80;99.90;;;;;;5093241;28;20284;-63
2021/05/14 00:13:00;;;;;;;;;;;11.80;99.90;;;;;;5093465;28;20276;-61
2021/05/14 00:15:26;;;;;;;;;;;11.80;99.90;;;;;;5093614;28;19912;-61
2021/05/14 00:17:52;;;;;;;;;;;11.80;99.90;;;;;;5092954;28;19961;-61
2021/05/14 00:20:18;;;;;;;;;;;11.80;99.90;;;;;;5093252;28;19924;-61
2021/05/14 00:22:44;;;;;;;;;;;11.90;99.90;;;;;;5091536;28;19908;-61
2021/05/14 00:25:10;;;;;;;;;;;11.90;99.90;;;;;;5093020;28;19922;-61
2021/05/14 00:27:36;;;;;;;;;;;11.90;99.90;;;;;;5091671;28;20357;-61
2021/05/14 00:30:03;;;;;;;;;;;11.90;99.90;;;;;;5092759;28;19908;-61
2021/05/14 00:32:28;;;;;;;;;;;11.90;99.90;;;;;;5093320;28;19919;-61
2021/05/14 00:34:54;;;;;;;;;;;11.90;99.90;;;;;;5092911;28;19912;-60
2021/05/14 00:37:20;;;;;;;;;;;11.90;99.90;;;;;;5093043;28;19916;-62
2021/05/14 00:39:46;;;;;;;;;;;11.90;99.90;;;;;;5092625;28;19942;-62
2021/05/14 00:42:12;;;;;;;;;;;12.00;99.90;;;;;;5092621;28;19945;-62
2021/05/14 00:44:39;;;;;;;;;;;12.00;99.90;;;;;;5092359;28;19911;-61
2021/05/14 00:47:06;;;;;;;;;;;11.90;99.90;;;;;;5092720;28;20368;-60
2021/05/14 00:49:32;;;;;;;;;;;11.90;99.90;;;;;;5092665;28;19934;-61
2021/05/14 00:51:59;;;;;;;;;;;12.00;99.90;;;;;;5092704;28;19912;-60
2021/05/14 00:54:25;;;;;;;;;;;12.00;99.90;;;;;;5092897;28;19908;-60
2021/05/14 00:56:51;;;;;;;;;;;12.00;99.90;;;;;;5090882;28;20287;-61
2021/05/14 00:59:17;;;;;;;;;;;12.00;99.90;;;;;;5092963;28;19962;-61
2021/05/14 01:01:42;;;;;;;;;;;12.00;99.90;;;;;;5092922;28;20002;-61
2021/05/14 01:04:08;;;;;;;;;;;11.90;99.90;;;;;;5092401;28;19920;-61
2021/05/14 01:06:34;;;;;;;;;;;11.90;99.90;;;;;;5092941;28;19916;-61
2021/05/14 01:09:00;;;;;;;;;;;11.90;99.90;;;;;;5091077;28;19912;-61
2021/05/14 01:11:26;;;;;;;;;;;11.80;99.90;;;;;;5092725;28;20360;-60
2021/05/14 01:13:53;;;;;;;;;;;11.80;99.90;;;;;;5092088;28;19920;-62
2021/05/14 01:16:19;;;;;;;;;;;11.80;99.90;;;;;;5092718;28;20395;-61
2021/05/14 01:18:45;;;;;;;;;;;11.80;99.90;;;;;;5092242;28;20265;-61
2021/05/14 01:21:11;;;;;;;;;;;11.80;99.90;;;;;;5092276;28;19927;-61
2021/05/14 01:23:37;;;;;;;;;;;11.70;99.90;;;;;;5092718;28;19912;-61
2021/05/14 01:26:13;;;;;;;;;;;11.70;99.90;;;;;;5092148;28;19908;-61
2021/05/14 01:28:39;;;;;;;;;;;11.70;99.90;;;;;;5092377;28;19912;-61
2021/05/14 01:31:05;;;;;;;;;;;11.70;99.90;;;;;;5092068;28;19927;-61
2021/05/14 01:33:31;;;;;;;;;;;11.70;99.90;;;;;;5092743;28;19915;-61
2021/05/14 01:35:57;;;;;;;;;;;11.70;99.90;;;;;;5092083;28;19920;-61
2021/05/14 01:38:23;;;;;;;;;;;11.70;99.90;;;;;;5090869;28;20406;-61
2021/05/14 01:40:48;;;;;;;;;;;11.70;99.90;;;;;;5092541;28;19994;-61
2021/05/14 01:43:14;;;;;;;;;;;11.70;99.90;;;;;;5092607;28;19926;-61
2021/05/14 01:45:40;;;;;;;;;;;11.70;99.90;;;;;;5092174;28;19965;-61
2021/05/14 01:48:06;;;;;;;;;;;11.70;99.90;;;;;;5092200;28;19919;-61
2021/05/14 01:50:32;;;;;;;;;;;11.70;99.90;;;;;;5092543;28;20364;-61
2021/05/14 01:52:58;;;;;;;;;;;11.70;99.90;;;;;;5093028;28;19920;-61
2021/05/14 01:55:24;;;;;;;;;;;11.80;99.90;;;;;;5094725;28;19937;-61
2021/05/14 01:57:50;;;;;;;;;;;11.80;99.90;;;;;;5095724;28;19958;-61
2021/05/14 02:00:16;;;;;;;;;;;11.80;99.90;;;;;;5096005;28;19920;-61
2021/05/14 02:02:42;;;;;;;;;;;11.80;99.90;;;;;;5095950;28;20368;-61
2021/05/14 02:05:08;;;;;;;;;;;11.80;99.90;;;;;;5095772;28;19916;-61
2021/05/14 02:07:34;;;;;;;;;;;11.90;99.90;;;;;;5095915;28;19912;-61
2021/05/14 02:10:00;;;;;;;;;;;11.90;99.90;;;;;;5094096;28;19911;-61
2021/05/14 02:12:26;;;;;;;;;;;11.90;99.90;;;;;;5095763;28;19912;-61
2021/05/14 02:14:52;;;;;;;;;;;11.90;99.90;;;;;;5095739;28;19912;-62
2021/05/14 02:17:18;;;;;;;;;;;11.90;99.90;;;;;;5095541;28;19912;-62
2021/05/14 02:19:44;;;;;;;;;;;11.90;99.90;;;;;;5095512;28;20335;-60
2021/05/14 02:22:10;;;;;;;;;;;11.90;99.90;;;;;;5095282;28;20276;-62
2021/05/14 02:24:35;;;;;;;;;;;11.90;99.90;;;;;;5095587;28;19908;-60
2021/05/14 02:27:03;;;;;;;;;;;11.80;99.90;;;;;;5086560;28;19969;-60
2021/05/14 02:29:33;;;;;;;;;;;11.80;99.90;;;;;;5095392;28;19908;-60
2021/05/14 02:32:00;;;;;;;;;;;11.80;99.90;;;;;;5094922;28;19912;-60
2021/05/14 02:34:26;;;;;;;;;;;11.80;99.90;;;;;;5095286;28;19908;-60
2021/05/14 02:36:52;;;;;;;;;;;11.80;99.90;;;;;;5095207;28;20281;-60
2021/05/14 02:39:18;;;;;;;;;;;11.90;99.90;;;;;;5094843;28;19959;-60
2021/05/14 02:41:43;;;;;;;;;;;11.90;99.90;;;;;;5095118;28;20342;-60
2021/05/14 02:44:09;;;;;;;;;;;11.90;99.90;;;;;;5094867;28;19912;-60
2021/05/14 02:46:35;;;;;;;;;;;11.90;99.90;;;;;;5093564;28;20368;-60
2021/05/14 02:49:01;;;;;;;;;;;11.90;99.90;;;;;;5095174;28;20260;-60
2021/05/14 02:51:27;;;;;;;;;;;11.90;99.90;;;;;;5094744;28;19919;-60
2021/05/14 02:53:53;;;;;;;;;;;11.90;99.90;;;;;;5095265;28;19912;-60
2021/05/14 02:56:19;;;;;;;;;;;11.90;99.90;;;;;;5094691;28;19916;-61
2021/05/14 02:58:45;;;;;;;;;;;11.90;99.90;;;;;;5094788;28;19908;-61
2021/05/14 03:01:11;;;;;;;;;;;11.90;99.90;;;;;;5094191;28;19916;-61
2021/05/14 03:03:37;;;;;;;;;;;11.90;99.90;;;;;;5094755;28;19948;-61
2021/05/14 03:06:03;;;;;;;;;;;11.90;99.90;;;;;;5085457;28;19912;-61
2021/05/14 03:08:29;;;;;;;;;;;11.90;99.90;;;;;;5094696;28;19998;-61
2021/05/14 03:10:55;;;;;;;;;;;11.90;99.90;;;;;;5094388;28;19915;-61
2021/05/14 03:13:21;;;;;;;;;;;11.90;99.90;;;;;;5094279;28;19923;-62
2021/05/14 03:15:47;;;;;;;;;;;11.90;99.90;;;;;;5094461;28;19995;-61
2021/05/14 03:18:13;;;;;;;;;;;11.90;99.90;;;;;;5094113;28;20363;-61
2021/05/14 03:20:39;;;;;;;;;;;11.90;99.90;;;;;;5094275;28;19931;-61
2021/05/14 03:23:05;;;;;;;;;;;11.90;99.90;;;;;;5094284;28;19912;-61
2021/05/14 03:25:31;;;;;;;;;;;11.90;99.90;;;;;;5094403;28;19934;-61
2021/05/14 03:27:56;;;;;;;;;;;11.90;99.90;;;;;;5093872;28;19919;-61
2021/05/14 03:30:22;;;;;;;;;;;12.00;99.90;;;;;;5093998;28;19923;-61
2021/05/14 03:32:48;;;;;;;;;;;12.00;99.90;;;;;;5094070;28;19935;-62
2021/05/14 03:35:14;;;;;;;;;;;12.00;99.90;;;;;;5093686;28;20466;-62
2021/05/14 03:37:40;;;;;;;;;;;12.00;99.90;;;;;;5094266;28;19912;-61
2021/05/14 03:43:01;;;;;;;;;;;12.10;99.90;;;;;;5089190;28;19919;-61
2021/05/14 03:45:27;;;;;;;;;;;12.10;99.90;;;;;;5093423;28;19912;-59
2021/05/14 03:47:54;;;;;;;;;;;12.10;99.90;;;;;;5099798;28;19915;-62
2021/05/14 03:50:20;;;;;;;;;;;12.10;99.90;;;;;;5099776;28;19915;-61
2021/05/14 03:52:46;;;;;;;;;;;12.10;99.90;;;;;;5093968;28;19919;-62
2021/05/14 03:55:12;;;;;;;;;;;12.10;99.90;;;;;;5093518;28;19916;-63
2021/05/14 03:57:38;;;;;;;;;;;12.10;99.90;;;;;;5094375;28;19959;-61
2021/05/14 04:00:04;;;;;;;;;;;12.30;99.90;;;;;;5094212;28;19923;-61
2021/05/14 04:02:30;;;;;;;;;;;12.30;99.90;;;;;;5093858;28;20284;-62
2021/05/14 04:04:57;;;;;;;;;;;12.30;99.90;;;;;;5094152;28;19908;-61
2021/05/14 04:07:23;;;;;;;;;;;12.30;99.90;;;;;;5093968;28;19931;-60
2021/05/14 04:10:03;;;;;;;;;;;12.30;99.90;;;;;;5093775;28;19916;-61
2021/05/14 04:15:07;;;;;;;;;;;12.40;99.90;;;;;;5093650;28;20385;-60
2021/05/14 04:17:33;;;;;;;;;;;12.40;99.90;;;;;;5092597;28;19908;-62
2021/05/14 04:19:59;;;;;;;;;;;12.40;99.90;;;;;;5093833;28;20056;-61
2021/05/14 04:22:28;;;;;;;;;;;12.40;99.90;;;;;;5091643;28;20395;-61
2021/05/14 04:24:54;;;;;;;;;;;12.40;99.90;;;;;;5092313;28;20365;-61
2021/05/14 04:27:20;;;;;;;;;;;12.40;99.90;;;;;;5093495;28;19908;-61
2021/05/14 04:29:46;;;;;;;;;;;12.40;99.90;;;;;;5093623;28;19908;-62
2021/05/14 04:32:12;;;;;;;;;;;12.40;99.90;;;;;;5093453;28;19929;-60
2021/05/14 04:34:38;;;;;;;;;;;12.30;99.90;;;;;;5093813;28;19907;-62
2021/05/14 04:37:04;;;;;;;;;;;12.30;99.90;;;;;;5093502;28;19916;-62
2021/05/14 04:39:30;;;;;;;;;;;12.40;99.90;;;;;;5093304;28;19930;-62
2021/05/14 04:41:56;;;;;;;;;;;12.40;99.90;;;;;;5093458;28;19919;-62
2021/05/14 04:44:22;;;;;;;;;;;12.30;99.90;;;;;;5093161;28;19908;-61
2021/05/14 04:46:48;;;;;;;;;;;12.30;99.90;;;;;;5093623;28;20264;-62
2021/05/14 04:49:14;;;;;;;;;;;12.40;99.90;;;;;;5093155;28;19904;-61
2021/05/14 04:51:40;;;;;;;;;;;12.40;99.90;;;;;;5093554;28;19912;-61
2021/05/14 04:54:06;;;;;;;;;;;12.50;99.90;;;;;;5093605;28;19916;-62
2021/05/14 04:56:31;;;;;;;;;;;12.60;99.90;;;;;;5093101;28;19904;-62
2021/05/14 04:58:57;;;;;;;;;;;12.70;99.90;;;;;;5093321;28;19911;-63
2021/05/14 05:01:23;;;;;;;;;;;12.90;99.90;;;;;;5093063;28;19916;-61
2021/05/14 05:03:50;;;;;;;;;;;13.00;99.90;;;;;;5093422;28;19947;-61
2021/05/14 05:06:16;;;;;;;;;;;13.10;99.90;;;;;;5091249;28;19927;-61
2021/05/14 05:08:42;;;;;;;;;;;13.10;99.90;;;;;;5089029;28;20340;-61
2021/05/14 05:11:08;;;;;;;;;;;13.00;99.90;;;;;;5093264;28;19932;-61
2021/05/14 05:13:34;;;;;;;;;;;13.10;99.90;;;;;;5093042;28;19908;-62
2021/05/14 05:16:00;;;;;;;;;;;13.10;99.90;;;;;;5092117;28;19916;-62
2021/05/14 05:18:26;;;;;;;;;;;13.10;99.90;;;;;;5099441;28;20428;-62
2021/05/14 05:20:52;;;;;;;;;;;13.20;99.90;;;;;;5101005;28;19920;-62
2021/05/14 05:23:17;;;;;;;;;;;13.20;99.90;;;;;;5100016;28;19908;-62
2021/05/14 05:25:43;;;;;;;;;;;13.30;99.90;;;;;;5097320;28;20304;-61
2021/05/14 05:28:09;;;;;;;;;;;13.30;99.90;;;;;;5096093;28;20403;-61
2021/05/14 05:30:35;;;;;;;;;;;13.30;99.90;;;;;;5095875;28;19922;-61
2021/05/14 05:33:01;;;;;;;;;;;13.30;99.90;;;;;;5096429;28;19915;-61
2021/05/14 05:35:27;;;;;;;;;;;13.20;99.90;;;;;;5094988;28;19927;-61
2021/05/14 05:37:54;;;;;;;;;;;13.30;99.90;;;;;;5098487;28;20367;-61
2021/05/14 05:40:20;;;;;;;;;;;13.30;99.90;;;;;;5095924;28;19927;-61
2021/05/14 05:42:46;;;;;;;;;;;13.40;99.90;;;;;;5096247;28;19912;-62
2021/05/14 05:45:12;;;;;;;;;;;13.50;99.90;;;;;;5095410;28;19912;-61
2021/05/14 05:47:39;;;;;;;;;;;13.50;99.90;;;;;;5093297;28;20016;-62
2021/05/14 05:50:05;;;;;;;;;;;13.50;99.90;;;;;;5086611;28;19930;-62
2021/05/14 05:52:31;;;;;;;;;;;13.50;99.90;;;;;;5095911;28;19911;-62
2021/05/14 05:54:57;;;;;;;;;;;13.50;99.90;;;;;;5094614;28;19935;-60
2021/05/14 05:57:23;;;;;;;;;;;13.50;99.90;;;;;;5089065;28;20345;-61
2021/05/14 05:59:49;;;;;;;;;;;13.50;99.90;;;;;;5096621;28;19904;-61
2021/05/14 06:02:14;;;;;;;;;;;13.50;99.90;;;;;;5096369;28;19915;-61
2021/05/14 06:04:40;;;;;;;;;;;13.60;99.90;;;;;;5096069;28;19916;-61
2021/05/14 06:07:06;;;;;;;;;;;13.70;99.90;;;;;;5095983;28;19908;-61
2021/05/14 06:09:32;;;;;;;;;;;13.70;99.90;;;;;;5095080;28;20296;-62
2021/05/14 06:11:58;;;;;;;;;;;13.70;99.90;;;;;;5096191;28;19916;-62
2021/05/14 06:14:24;;;;;;;;;;;13.70;99.90;;;;;;5095861;28;19970;-61
2021/05/14 06:16:50;;;;;;;;;;;13.80;99.90;;;;;;5093364;28;19923;-60
2021/05/14 06:19:31;;;;;;;;;;;13.70;99.90;;;;;;5093625;28;20276;-60
2021/05/14 06:21:57;;;;;;;;;;;13.70;99.90;;;;;;5075645;28;19923;-60
2021/05/14 06:24:23;;;;;;;;;;;13.70;99.90;;;;;;5081922;28;19912;-61
2021/05/14 06:26:49;;;;;;;;;;;13.80;99.90;;;;;;5095200;28;19912;-61
2021/05/14 06:29:15;;;;;;;;;;;13.70;99.90;;;;;;5094636;28;19915;-61
2021/05/14 06:31:41;;;;;;;;;;;13.70;99.90;;;;;;5094951;28;19908;-61
2021/05/14 06:34:07;;;;;;;;;;;13.80;99.90;;;;;;5095245;28;19911;-61
2021/05/14 06:36:33;;;;;;;;;;;13.90;99.90;;;;;;5094715;28;19916;-61
2021/05/14 06:38:59;;;;;;;;;;;14.00;99.90;;;;;;5094221;28;19908;-62
2021/05/14 06:41:26;;;;;;;;;;;14.10;99.90;;;;;;5093758;28;20261;-62
2021/05/14 06:43:52;;;;;;;;;;;14.20;99.90;;;;;;5095185;28;19912;-62
2021/05/14 06:46:18;;;;;;;;;;;14.20;99.90;;;;;;5095408;28;19940;-62
2021/05/14 06:48:46;;;;;;;;;;;14.20;99.90;;;;;;5093389;28;20278;-61
2021/05/14 06:51:12;;;;;;;;;;;14.30;99.90;;;;;;5093870;28;19919;-62
2021/05/14 06:53:38;;;;;;;;;;;14.30;99.90;;;;;;5094556;28;19911;-62
2021/05/14 06:56:04;;;;;;;;;;;14.40;99.90;;;;;;5094638;28;19912;-62
2021/05/14 06:58:30;;;;;;;;;;;14.50;99.90;;;;;;5094666;28;19912;-62
2021/05/14 07:00:56;;;;;;;;;;;14.70;99.90;;;;;;5093768;28;19969;-62
2021/05/14 07:03:22;;;;;;;;;;;14.80;99.90;;;;;;5094571;28;19919;-62
2021/05/14 07:05:47;;;;;;;;;;;14.90;99.90;;;;;;5094097;28;19908;-62
2021/05/14 07:08:13;;;;;;;;;;;14.90;99.90;;;;;;5094227;28;19912;-62
2021/05/14 07:10:39;;;;;;;;;;;15.10;99.90;;;;;;5094318;28;20284;-62
2021/05/14 07:13:05;;;;;;;;;;;15.20;99.90;;;;;;5093597;28;19923;-62
2021/05/14 07:15:31;;;;;;;;;;;15.30;99.90;;;;;;5094316;28;19912;-62
2021/05/14 07:18:00;;;;;;;;;;;15.50;99.90;;;;;;5094079;28;19934;-62
2021/05/14 07:20:27;;;;;;;;;;;15.60;99.90;;;;;;5094550;28;19908;-62
2021/05/14 07:22:53;;;;;;;;;;;15.70;99.90;;;;;;5093665;28;19915;-62
2021/05/14 07:25:19;;;;;;;;;;;15.80;99.90;;;;;;5094265;28;20365;-62
2021/05/14 07:27:45;;;;;;;;;;;15.80;99.90;;;;;;5093944;28;19908;-62
2021/05/14 07:30:12;;;;;;;;;;;15.80;99.90;;;;;;5094713;28;19919;-62
2021/05/14 07:32:38;;;;;;;;;;;15.80;99.90;;;;;;5094025;28;19920;-62
2021/05/14 07:35:05;;;;;;;;;;;15.80;99.90;;;;;;5094391;28;20340;-63
2021/05/14 07:37:31;;;;;;;;;;;15.70;99.90;;;;;;5094182;28;19915;-62
2021/05/14 07:39:57;;;;;;;;;;;15.70;99.90;;;;;;5094642;28;19908;-63
2021/05/14 07:42:23;;;;;;;;;;;15.70;99.90;;;;;;5094204;28;19923;-62
2021/05/14 07:44:49;;;;;;;;;;;15.60;99.90;;;;;;5091859;28;19915;-62
2021/05/14 07:47:15;;;;;;;;;;;15.60;99.90;;;;;;5094290;28;19912;-62
2021/05/14 07:49:41;;;;;;;;;;;15.60;99.90;;;;;;5092364;28;19965;-62
2021/05/14 07:52:07;;;;;;;;;;;15.70;99.90;;;;;;5093927;28;19957;-62
2021/05/14 07:54:33;;;;;;;;;;;15.60;99.90;;;;;;5093006;28;20388;-62
2021/05/14 07:56:59;;;;;;;;;;;15.60;99.90;;;;;;5093970;28;20389;-62
2021/05/14 07:59:26;;;;;;;;;;;15.60;99.90;;;;;;5093893;28;19908;-63
2021/05/14 08:01:52;;;;;;;;;;;15.50;99.90;;;;;;5093356;28;20367;-62
2021/05/14 08:04:18;;;;;;;;;;;15.50;99.90;;;;;;5093295;28;19919;-62
2021/05/14 08:06:44;;;;;;;;;;;15.50;99.90;;;;;;5092893;28;19930;-63
2021/05/14 08:09:12;;;;;;;;;;;15.40;99.90;;;;;;5093211;28;19912;-62
2021/05/14 08:11:38;;;;;;;;;;;15.40;99.90;;;;;;5092778;28;19919;-62
2021/05/14 08:14:04;;;;;;;;;;;15.40;99.90;;;;;;5093019;28;19912;-63
2021/05/14 08:16:30;;;;;;;;;;;15.40;99.90;;;;;;5091111;28;19908;-63
2021/05/14 08:18:56;;;;;;;;;;;15.40;99.90;;;;;;5092745;28;19919;-62
2021/05/14 08:21:22;;;;;;;;;;;15.40;99.90;;;;;;5092914;28;20338;-62
2021/05/14 08:23:48;;;;;;;;;;;15.50;99.90;;;;;;5092886;28;19919;-62
2021/05/14 08:26:14;;;;;;;;;;;15.40;99.90;;;;;;5092524;28;19911;-63
2021/05/14 08:28:40;;;;;;;;;;;15.40;99.90;;;;;;5093177;28;20415;-63
2021/05/14 08:31:06;;;;;;;;;;;15.40;99.90;;;;;;5092910;28;19919;-62
2021/05/14 08:33:32;;;;;;;;;;;15.40;99.90;;;;;;5092697;28;19912;-62
2021/05/14 08:35:58;;;;;;;;;;;15.50;99.90;;;;;;5092380;28;19969;-62
2021/05/14 08:38:26;;;;;;;;;;;15.60;99.90;;;;;;5092455;28;19919;-63
2021/05/14 08:40:53;;;;;;;;;;;15.70;99.90;;;;;;5092364;28;19924;-63
2021/05/14 08:43:18;;;;;;;;;;;15.70;99.90;;;;;;5092836;28;19934;-63
2021/05/14 08:45:44;;;;;;;;;;;15.90;99.90;;;;;;5092506;28;19912;-63
2021/05/14 08:48:13;;;;;;;;;;;16.00;99.90;;;;;;5092303;28;19908;-62
2021/05/14 08:50:39;;;;;;;;;;;16.20;99.90;;;;;;5092938;28;19904;-62
2021/05/14 08:53:05;;;;;;;;;;;16.30;99.90;;;;;;5093358;28;20371;-62
2021/05/14 08:55:31;;;;;;;;;;;16.40;99.90;;;;;;5093077;28;19908;-62
2021/05/14 08:57:58;;;;;;;;;;;16.50;99.90;;;;;;5091574;28;19912;-62
2021/05/14 09:00:24;;;;;;;;;;;16.40;99.90;;;;;;5092964;28;20356;-63
2021/05/14 09:02:51;;;;;;;;;;;16.50;99.90;;;;;;5094768;28;19919;-62
2021/05/14 09:05:20;;;;;;;;;;;17.00;99.90;;;;;;5099827;28;19911;-63
2021/05/14 09:07:46;;;;;;;;;;;18.10;99.90;;;;;;5099653;28;19911;-62
2021/05/14 09:10:12;;;;;;;;;;;19.20;99.90;;;;;;5078785;28;19909;-63
2021/05/14 09:12:38;;;;;;;;;;;20.60;99.90;;;;;;5079985;28;19913;-63
2021/05/14 09:15:19;;;;;;;;;;;21.90;99.90;;;;;;5079239;28;19909;-63
2021/05/14 09:18:01;;;;;;;;;;;22.60;99.90;;;;;;5079292;28;19904;-64
2021/05/14 09:20:31;;;;;;;;;;;22.90;99.90;;;;;;5082831;28;19908;-64
2021/05/14 09:22:57;;;;;;;;;;;23.30;99.90;;;;;;5099447;28;19916;-65
2021/05/14 09:25:23;;;;;;;;;;;23.80;99.90;;;;;;5099387;28;19930;-65
2021/05/14 09:27:49;;;;;;;;;;;23.60;99.90;;;;;;5098747;28;20372;-65
2021/05/14 09:30:15;;;;;;;;;;;23.50;99.90;;;;;;5097075;28;19958;-65
2021/05/14 09:32:41;;;;;;;;;;;23.60;99.90;;;;;;5098823;28;20019;-65
2021/05/14 09:35:07;;;;;;;;;;;23.50;99.90;;;;;;5098545;28;20365;-65
2021/05/14 09:37:33;;;;;;;;;;;23.70;99.90;;;;;;5097767;28;19908;-66
2021/05/14 09:40:15;;;;;;;;;;;23.60;99.90;;;;;;5098306;28;20287;-65
2021/05/14 09:42:41;;;;;;;;;;;22.90;99.90;;;;;;5098916;28;19924;-66
2021/05/14 09:45:13;;;;;;;;;;;22.70;99.90;;;;;;5099343;28;20280;-66
2021/05/14 09:47:39;;;;;;;;;;;22.90;99.90;;;;;;5099479;28;19904;-66
2021/05/14 09:50:40;;;;;;;;;;;23.00;99.90;;;;;;5099140;28;19908;-66
2021/05/14 09:53:10;;;;;;;;;;;22.80;99.90;;;;;;5075220;28;19915;-66
2021/05/14 09:55:37;;;;;;;;;;;23.40;99.70;;;;;;5077846;28;19911;-66
2021/05/14 09:58:10;;;;;;;;;;;23.40;99.90;;;;;;5093288;28;19908;-67
2021/05/14 10:00:36;;;;;;;;;;;23.50;99.30;;;;;;5098356;28;19912;-66
2021/05/14 10:03:03;;;;;;;;;;;23.40;99.90;;;;;;5097260;28;20348;-67
2021/05/14 10:05:29;;;;;;;;;;;23.90;99.80;;;;;;5099549;28;19919;-67
2021/05/14 10:07:55;;;;;;;;;;;24.30;99.90;;;;;;5098023;28;19908;-68
2021/05/14 10:10:21;;;;;;;;;;;24.40;99.40;;;;;;5097374;28;19912;-67
2021/05/14 10:12:47;;;;;;;;;;;24.30;97.80;;;;;;5098813;28;20368;-65
2021/05/14 10:15:13;;;;;;;;;;;23.80;99.50;;;;;;5100857;28;20249;-67
2021/05/14 10:17:39;;;;;;;;;;;23.50;98.30;;;;;;5099865;28;19904;-67
2021/05/14 10:20:06;;;;;;;;;;;23.20;99.90;;;;;;5102602;28;19916;-67
2021/05/14 10:22:33;;;;;;;;;;;23.30;99.90;;;;;;5104708;28;19915;-67
2021/05/14 10:25:00;;;;;;;;;;;23.60;97.70;;;;;;5099408;28;19915;-67
2021/05/14 10:27:27;;;;;;;;;;;24.30;98.90;;;;;;5103755;28;19912;-66
2021/05/14 10:29:53;;;;;;;;;;;24.80;97.90;;;;;;5101072;28;20272;-67
2021/05/14 10:32:54;;;;;;;;;;;25.30;98.00;;;;;;5098706;28;20380;-68
2021/05/14 10:35:24;;;;;;;;;;;25.50;95.90;;;;;;5068052;28;19924;-67
2021/05/14 10:37:52;;;;;;;;;;;25.40;93.60;;;;;;5090766;28;19915;-67
2021/05/14 10:40:33;;;;;;;;;;;25.50;95.10;;;;;;5092203;28;19915;-69
2021/05/14 10:43:00;;;;;;;;;;;25.80;93.40;;;;;;5094013;28;20288;-68
2021/05/14 10:45:35;;;;;;;;;;;25.60;93.00;;;;;;5092938;28;20672;-67
2021/05/14 10:48:01;;;;;;;;;;;26.00;92.60;;;;;;5094293;28;19912;-70
2021/05/14 10:50:34;;;;;;;;;;;26.70;93.00;;;;;;5094809;28;19935;-67
2021/05/14 10:53:19;;;;;;;;;;;27.40;90.60;;;;;;5094120;28;19919;-67
2021/05/14 10:55:46;;;;;;;;;;;27.30;88.50;;;;;;5090968;28;19915;-68
2021/05/14 10:58:30;;;;;;;;;;;27.00;88.20;;;;;;5093948;28;19923;-68
2021/05/14 11:00:56;;;;;;;;;;;27.80;90.20;;;;;;5094510;28;19908;-69
2021/05/14 11:03:24;;;;;;;;;;;28.30;89.50;;;;;;5093325;28;19916;-68
2021/05/14 11:06:07;;;;;;;;;;;27.90;87.80;;;;;;5093286;28;19908;-67
2021/05/14 11:08:33;;;;;;;;;;;26.50;89.70;;;;;;5093431;28;19916;-69
2021/05/14 11:11:00;;;;;;;;;;;24.90;91.00;;;;;;5093961;28;20395;-68
2021/05/14 11:13:38;;;;;;;;;;;24.70;91.70;;;;;;5094470;28;19912;-67
2021/05/14 11:16:34;;;;;;;;;;;23.90;92.00;;;;;;5093026;28;19908;-68
2021/05/14 11:19:15;;;;;;;;;;;23.70;93.60;;;;;;5084965;28;19908;-67
2021/05/14 11:22:19;;;;;;;;;;;23.60;93.70;;;;;;5086694;28;19916;-67
2021/05/14 11:24:49;;;;;;;;;;;23.70;94.90;;;;;;5048187;28;19916;-68
2021/05/14 11:27:16;;;;;;;;;;;23.40;95.60;;;;;;5051461;28;19920;-67
2021/05/14 11:29:44;;;;;;;;;;;22.20;96.50;;;;;;5072831;28;19912;-67
2021/05/14 11:32:20;;;;;;;;;;;21.70;97.10;;;;;;5093984;28;19908;-67
2021/05/14 11:34:52;;;;;;;;;;;21.70;98.70;;;;;;5094237;28;19908;-66
2021/05/14 11:37:19;;;;;;;;;;;20.90;97.50;;;;;;5092313;28;19916;-65
2021/05/14 11:39:44;;;;;;;;;;;20.70;98.90;;;;;;5092936;28;20258;-67
2021/05/14 11:42:17;;;;;;;;;;;20.70;99.10;;;;;;5094005;28;19927;-66
2021/05/14 11:45:12;;;;;;;;;;;20.50;99.70;;;;;;5093930;28;19915;-67
2021/05/14 11:47:42;;;;;;;;;;;20.50;99.90;;;;;;5086824;28;19908;-68
2021/05/14 11:50:08;;;;;;;;;;;20.50;99.90;;;;;;5093764;28;19908;-68
2021/05/14 11:52:35;;;;;;;;;;;19.70;99.90;;;;;;5094010;28;19923;-68
2021/05/14 11:55:02;;;;;;;;;;;19.40;99.90;;;;;;5093348;28;19930;-67
2021/05/14 11:57:30;;;;;;;;;;;19.20;99.90;;;;;;5093810;28;20264;-66
2021/05/14 11:59:56;;;;;;;;;;;19.20;99.90;;;;;;5093687;28;19908;-67
2021/05/14 12:02:52;;;;;;;;;;;19.00;99.90;;;;;;5091587;28;20588;-67
2021/05/14 12:05:19;;;;;;;;;;;18.90;99.90;;;;;;5083621;28;19908;-67
2021/05/14 12:07:45;;;;;;;;;;;18.90;99.90;;;;;;5093248;28;19916;-66
2021/05/14 12:10:15;;;;;;;;;;;18.80;99.90;;;;;;5092946;28;19912;-65
2021/05/14 12:12:42;;;;;;;;;;;18.60;99.90;;;;;;5093883;28;19915;-66
2021/05/14 12:15:09;;;;;;;;;;;18.50;99.90;;;;;;5092949;28;19919;-67
2021/05/14 12:17:35;;;;;;;;;;;17.90;99.90;;;;;;5093493;28;20288;-67
2021/05/14 12:20:30;;;;;;;;;;;17.60;99.90;;;;;;5091880;28;19919;-67
2021/05/14 12:22:58;;;;;;;;;;;17.50;99.90;;;;;;5082899;28;19998;-68
2021/05/14 12:25:24;;;;;;;;;;;17.30;99.90;;;;;;5093229;28;19912;-68
2021/05/14 12:27:50;;;;;;;;;;;17.20;99.90;;;;;;5093441;28;19908;-69
2021/05/14 12:30:16;;;;;;;;;;;17.20;99.90;;;;;;5092796;28;19977;-67
2021/05/14 12:32:55;;;;;;;;;;;17.10;99.90;;;;;;5091867;28;19908;-66
2021/05/14 12:35:22;;;;;;;;;;;17.20;99.90;;;;;;5091712;28;19931;-67
2021/05/14 12:37:51;;;;;;;;;;;17.20;99.90;;;;;;5091978;28;19908;-66
2021/05/14 12:40:27;;;;;;;;;;;17.60;99.90;;;;;;5093028;28;19931;-68
2021/05/14 12:43:02;;;;;;;;;;;17.60;99.90;;;;;;5093041;28;19920;-65
2021/05/14 12:45:29;;;;;;;;;;;17.80;99.90;;;;;;5093043;28;19908;-67
2021/05/14 12:47:57;;;;;;;;;;;18.00;99.90;;;;;;5091329;28;19908;-66
2021/05/14 12:50:24;;;;;;;;;;;18.10;99.90;;;;;;5093036;28;19916;-66
2021/05/14 12:52:50;;;;;;;;;;;18.10;99.90;;;;;;5092903;28;20383;-66
2021/05/14 12:55:16;;;;;;;;;;;18.10;99.90;;;;;;5092785;28;19912;-66
2021/05/14 12:57:43;;;;;;;;;;;18.00;99.90;;;;;;5092706;28;19919;-66
2021/05/14 13:00:09;;;;;;;;;;;18.00;99.90;;;;;;5092550;28;19915;-67
2021/05/14 13:02:37;;;;;;;;;;;18.10;99.90;;;;;;5092700;28;19927;-66
2021/05/14 13:05:04;;;;;;;;;;;18.30;99.90;;;;;;5093090;28;20372;-66
2021/05/14 13:07:30;;;;;;;;;;;18.20;99.90;;;;;;5092337;28;19904;-66
2021/05/14 13:09:56;;;;;;;;;;;18.20;99.90;;;;;;5092435;28;19908;-65
2021/05/14 13:12:22;;;;;;;;;;;18.20;99.90;;;;;;5092768;28;19923;-66
2021/05/14 13:14:48;;;;;;;;;;;18.20;99.90;;;;;;5092345;28;20295;-67
2021/05/14 13:17:14;;;;;;;;;;;18.20;99.90;;;;;;5092881;28;19908;-66
2021/05/14 13:19:39;;;;;;;;;;;17.90;99.90;;;;;;5092219;28;19915;-66
2021/05/14 13:22:06;;;;;;;;;;;17.90;99.90;;;;;;5092534;28;19924;-66
2021/05/14 13:24:31;;;;;;;;;;;18.00;99.90;;;;;;5091716;28;19912;-66
2021/05/14 13:26:58;;;;;;;;;;;18.10;99.90;;;;;;5092498;28;20318;-66
2021/05/14 13:29:24;;;;;;;;;;;18.10;99.90;;;;;;5091925;28;19912;-66
2021/05/14 13:31:50;;;;;;;;;;;18.20;99.90;;;;;;5091810;28;19931;-67
2021/05/14 13:34:15;;;;;;;;;;;18.30;99.90;;;;;;5092032;28;20365;-66
2021/05/14 13:36:41;;;;;;;;;;;18.40;99.90;;;;;;5092146;28;19927;-66
2021/05/14 13:39:08;;;;;;;;;;;18.40;99.90;;;;;;5090524;28;20731;-66
2021/05/14 13:41:33;;;;;;;;;;;18.40;99.90;;;;;;5092759;28;19912;-66
2021/05/14 13:44:03;;;;;;;;;;;18.40;99.90;;;;;;5092630;28;20273;-66
2021/05/14 13:46:29;;;;;;;;;;;18.40;99.90;;;;;;5092254;28;19916;-66
2021/05/14 13:48:55;;;;;;;;;;;18.40;99.90;;;;;;5093664;28;19919;-67
2021/05/14 13:51:21;;;;;;;;;;;18.40;99.90;;;;;;5094564;28;20010;-66
2021/05/14 13:53:47;;;;;;;;;;;18.30;99.90;;;;;;5093841;28;19915;-66
2021/05/14 13:56:13;;;;;;;;;;;18.30;99.90;;;;;;5094893;28;19915;-67
2021/05/14 13:58:38;;;;;;;;;;;18.30;99.90;;;;;;5095354;28;19912;-67
2021/05/14 14:01:05;;;;;;;;;;;18.30;99.90;;;;;;5095927;28;19912;-66
2021/05/14 14:03:31;;;;;;;;;;;18.20;99.90;;;;;;5093790;28;19947;-66
2021/05/14 14:05:57;;;;;;;;;;;18.20;99.90;;;;;;5096229;28;20372;-67
2021/05/14 14:08:22;;;;;;;;;;;18.10;99.90;;;;;;5095673;28;19920;-65
2021/05/14 14:10:48;;;;;;;;;;;18.10;99.90;;;;;;5095709;28;20360;-66
2021/05/14 14:13:14;;;;;;;;;;;18.20;99.90;;;;;;5095324;28;20426;-67
2021/05/14 14:15:40;;;;;;;;;;;18.40;99.90;;;;;;5095696;28;19912;-66
2021/05/14 14:18:06;;;;;;;;;;;18.50;99.90;;;;;;5095613;28;19915;-66
2021/05/14 14:20:32;;;;;;;;;;;18.50;99.90;;;;;;5095600;28;19977;-66
2021/05/14 14:22:58;;;;;;;;;;;18.50;99.90;;;;;;5095527;28;19927;-68